Airfield :
LOGIN :

Register | Disclaimer

   EN    FR    IT 

 










Legend :    VFR   Marginal VFR   IFR   Intensive IFR   Very Intensive IFR
Visi :
Ceiling :
>= 8 km
>= 3000ft
5 to 8 km
1000 to 3000 ft
1500m to 5 km
500 to 1000 ft
800 to 1500m
200 to 500 ft
< 800m
< 200 ft
Symbols :   Thunderstorms  Fog  Heavy snow  Heavy precipitations  Wind > 20 kt
SIGMETs :     Misc.  Thunderstorms  Icing  Turbulence  Mountain Waves  Volcanic Ashes






- Airport Elevation : 1649 ft
- IATA code : HHN


EDFH - Frankfurt-Hahn Rhineland-Palatinate

CURRENT METAR :
  • 200620Z 08005KT 9000 FEW006 SCT024 M00/M01 Q1016

EXPIRED METARs :
  • 200550Z 09006KT 9000 SCT012 00/M00 Q1016
  • 200520Z 07005KT 9000 SCT011 M00/M00 Q1017
  • 200450Z 07006KT 9000 SCT010 M00/M00 Q1017
  • 200420Z 12005KT 090V180 8000 FEW002 SCT009 M01/M01 Q1017
  • 200350Z 14007KT 7000 R21/1400D SCT008 M02/M02 Q1017

TAF TAF EDFH
Valid from the 20 at 06:00 until the 21 at 06:00 UTC


200500Z 2006/2106 12009KT 9999 SCT008
TEMPO 2006/2012 BKN008
TEMPO 2022/2106 12004KT 0500 FZFG VV000



MET'MAP, your aeronautical weather chart ! - Copyright ORBIFLY December 2007 - Disclaimer

ORBIFLY MET'MAP TEAM :

Programming & Development : Alexandra Zaïnal
Concept & Development : Baudouin d'Aumeries
Co-Development & Prog : Marc-Olivier Méhu
Technical & hardware support : Manuel Goepfert

Contact : metmap@orbifly.com




SOURCES & CREDITS :

   NOAA